sensor_id;sensor_type;location;lat;lon;timestamp;P1;durP1;ratioP1;P2;durP2;ratioP2
14316;SDS011;7242;50.858;6.586;2022-07-01T00:00:01;5.67;;;4.90;;
14316;SDS011;7242;50.858;6.586;2022-07-01T00:03:13;6.23;;;4.67;;
14316;SDS011;7242;50.858;6.586;2022-07-01T00:06:14;5.77;;;5.17;;
14316;SDS011;7242;50.858;6.586;2022-07-01T00:09:15;5.80;;;5.20;;
14316;SDS011;7242;50.858;6.586;2022-07-01T00:12:16;8.13;;;5.50;;
14316;SDS011;7242;50.858;6.586;2022-07-01T00:19:10;8.53;;;6.70;;
14316;SDS011;7242;50.858;6.586;2022-07-01T00:22:11;9.50;;;7.07;;
14316;SDS011;7242;50.858;6.586;2022-07-01T00:25:12;8.60;;;7.30;;
14316;SDS011;7242;50.858;6.586;2022-07-01T00:28:12;7.03;;;6.33;;
14316;SDS011;7242;50.858;6.586;2022-07-01T00:31:13;7.07;;;6.37;;
14316;SDS011;7242;50.858;6.586;2022-07-01T00:34:14;7.47;;;6.50;;
14316;SDS011;7242;50.858;6.586;2022-07-01T00:37:15;8.03;;;6.70;;
14316;SDS011;7242;50.858;6.586;2022-07-01T00:40:15;9.27;;;6.63;;
14316;SDS011;7242;50.858;6.586;2022-07-01T00:43:16;8.90;;;6.70;;
14316;SDS011;7242;50.858;6.586;2022-07-01T00:46:18;6.63;;;5.97;;
14316;SDS011;7242;50.858;6.586;2022-07-01T00:49:19;6.63;;;5.93;;
14316;SDS011;7242;50.858;6.586;2022-07-01T00:52:21;6.20;;;5.33;;
14316;SDS011;7242;50.858;6.586;2022-07-01T00:55:22;8.53;;;5.90;;
14316;SDS011;7242;50.858;6.586;2022-07-01T00:58:25;7.83;;;5.60;;
14316;SDS011;7242;50.858;6.586;2022-07-01T01:01:27;5.97;;;5.27;;
14316;SDS011;7242;50.858;6.586;2022-07-01T01:04:27;6.73;;;4.97;;
14316;SDS011;7242;50.858;6.586;2022-07-01T01:07:28;6.70;;;4.93;;
14316;SDS011;7242;50.858;6.586;2022-07-01T01:10:30;5.60;;;4.90;;
14316;SDS011;7242;50.858;6.586;2022-07-01T01:13:31;4.37;;;3.97;;
14316;SDS011;7242;50.858;6.586;2022-07-01T01:16:32;5.57;;;4.17;;
14316;SDS011;7242;50.858;6.586;2022-07-01T01:19:34;4.30;;;3.40;;
14316;SDS011;7242;50.858;6.586;2022-07-01T01:22:34;3.73;;;3.37;;
14316;SDS011;7242;50.858;6.586;2022-07-01T01:25:35;5.43;;;3.70;;
14316;SDS011;7242;50.858;6.586;2022-07-01T01:28:36;5.50;;;3.33;;
14316;SDS011;7242;50.858;6.586;2022-07-01T01:31:37;3.30;;;2.97;;
14316;SDS011;7242;50.858;6.586;2022-07-01T01:34:38;4.33;;;2.97;;
14316;SDS011;7242;50.858;6.586;2022-07-01T01:37:40;4.10;;;2.87;;
14316;SDS011;7242;50.858;6.586;2022-07-01T01:40:43;5.07;;;3.03;;
14316;SDS011;7242;50.858;6.586;2022-07-01T01:43:44;4.10;;;2.80;;
14316;SDS011;7242;50.858;6.586;2022-07-01T01:46:45;3.37;;;2.70;;
14316;SDS011;7242;50.858;6.586;2022-07-01T01:49:46;4.10;;;2.73;;
14316;SDS011;7242;50.858;6.586;2022-07-01T01:52:46;3.13;;;2.50;;
14316;SDS011;7242;50.858;6.586;2022-07-01T01:55:47;4.10;;;2.47;;
14316;SDS011;7242;50.858;6.586;2022-07-01T01:58:48;6.50;;;2.50;;
14316;SDS011;7242;50.858;6.586;2022-07-01T02:01:50;2.83;;;2.23;;
14316;SDS011;7242;50.858;6.586;2022-07-01T02:04:51;2.50;;;2.20;;
14316;SDS011;7242;50.858;6.586;2022-07-01T02:07:51;2.57;;;2.00;;
14316;SDS011;7242;50.858;6.586;2022-07-01T02:10:52;2.87;;;1.87;;
14316;SDS011;7242;50.858;6.586;2022-07-01T02:13:53;2.77;;;1.93;;
14316;SDS011;7242;50.858;6.586;2022-07-01T02:16:53;3.17;;;1.97;;
14316;SDS011;7242;50.858;6.586;2022-07-01T02:19:54;4.90;;;2.00;;
14316;SDS011;7242;50.858;6.586;2022-07-01T02:22:55;2.33;;;2.13;;
14316;SDS011;7242;50.858;6.586;2022-07-01T02:25:56;2.30;;;1.90;;
14316;SDS011;7242;50.858;6.586;2022-07-01T02:28:56;3.30;;;2.00;;
14316;SDS011;7242;50.858;6.586;2022-07-01T02:31:57;3.57;;;1.80;;
14316;SDS011;7242;50.858;6.586;2022-07-01T02:34:58;4.27;;;2.13;;
14316;SDS011;7242;50.858;6.586;2022-07-01T02:37:59;3.20;;;2.13;;
14316;SDS011;7242;50.858;6.586;2022-07-01T02:40:59;3.17;;;2.00;;
14316;SDS011;7242;50.858;6.586;2022-07-01T02:44:00;3.20;;;1.80;;
14316;SDS011;7242;50.858;6.586;2022-07-01T02:47:01;3.07;;;1.90;;
14316;SDS011;7242;50.858;6.586;2022-07-01T02:50:05;2.63;;;1.93;;
14316;SDS011;7242;50.858;6.586;2022-07-01T02:53:07;2.70;;;1.87;;
14316;SDS011;7242;50.858;6.586;2022-07-01T02:56:08;2.90;;;1.87;;
14316;SDS011;7242;50.858;6.586;2022-07-01T02:59:09;4.00;;;1.90;;
14316;SDS011;7242;50.858;6.586;2022-07-01T03:02:10;3.67;;;1.97;;
14316;SDS011;7242;50.858;6.586;2022-07-01T03:05:10;3.97;;;2.17;;
14316;SDS011;7242;50.858;6.586;2022-07-01T03:08:11;3.47;;;2.10;;
14316;SDS011;7242;50.858;6.586;2022-07-01T03:11:12;3.90;;;1.87;;
14316;SDS011;7242;50.858;6.586;2022-07-01T03:14:13;3.97;;;2.30;;
14316;SDS011;7242;50.858;6.586;2022-07-01T03:17:13;3.73;;;2.00;;
14316;SDS011;7242;50.858;6.586;2022-07-01T03:20:15;5.37;;;2.10;;
14316;SDS011;7242;50.858;6.586;2022-07-01T03:23:16;2.80;;;2.20;;
14316;SDS011;7242;50.858;6.586;2022-07-01T03:26:17;4.17;;;2.33;;
14316;SDS011;7242;50.858;6.586;2022-07-01T03:29:18;6.37;;;2.57;;
14316;SDS011;7242;50.858;6.586;2022-07-01T03:32:19;5.27;;;2.40;;
14316;SDS011;7242;50.858;6.586;2022-07-01T03:35:19;4.70;;;2.07;;
14316;SDS011;7242;50.858;6.586;2022-07-01T03:38:35;4.37;;;2.30;;
14316;SDS011;7242;50.858;6.586;2022-07-01T03:41:36;6.67;;;2.80;;
14316;SDS011;7242;50.858;6.586;2022-07-01T03:44:37;4.97;;;2.63;;
14316;SDS011;7242;50.858;6.586;2022-07-01T03:47:38;4.03;;;2.57;;
14316;SDS011;7242;50.858;6.586;2022-07-01T03:50:48;6.97;;;2.50;;
14316;SDS011;7242;50.858;6.586;2022-07-01T03:53:49;3.67;;;2.20;;
14316;SDS011;7242;50.858;6.586;2022-07-01T03:57:09;4.20;;;2.27;;
14316;SDS011;7242;50.858;6.586;2022-07-01T04:00:10;3.83;;;2.50;;
14316;SDS011;7242;50.858;6.586;2022-07-01T04:03:11;8.37;;;2.20;;
14316;SDS011;7242;50.858;6.586;2022-07-01T04:06:11;7.53;;;2.50;;
14316;SDS011;7242;50.858;6.586;2022-07-01T04:09:12;4.20;;;2.40;;
14316;SDS011;7242;50.858;6.586;2022-07-01T04:12:14;4.30;;;2.30;;
14316;SDS011;7242;50.858;6.586;2022-07-01T04:15:15;5.07;;;1.90;;
14316;SDS011;7242;50.858;6.586;2022-07-01T04:18:17;4.47;;;1.93;;
14316;SDS011;7242;50.858;6.586;2022-07-01T04:21:18;3.83;;;2.20;;
14316;SDS011;7242;50.858;6.586;2022-07-01T04:24:37;5.33;;;2.03;;
14316;SDS011;7242;50.858;6.586;2022-07-01T04:27:38;3.63;;;1.80;;
14316;SDS011;7242;50.858;6.586;2022-07-01T04:30:39;4.03;;;1.80;;
14316;SDS011;7242;50.858;6.586;2022-07-01T04:33:39;4.27;;;1.70;;
14316;SDS011;7242;50.858;6.586;2022-07-01T04:36:40;3.40;;;1.87;;
14316;SDS011;7242;50.858;6.586;2022-07-01T04:39:41;5.40;;;2.00;;
14316;SDS011;7242;50.858;6.586;2022-07-01T04:42:42;3.83;;;2.00;;
14316;SDS011;7242;50.858;6.586;2022-07-01T04:45:43;4.87;;;2.30;;
14316;SDS011;7242;50.858;6.586;2022-07-01T04:48:43;3.60;;;1.77;;
14316;SDS011;7242;50.858;6.586;2022-07-01T04:51:44;2.53;;;1.87;;
14316;SDS011;7242;50.858;6.586;2022-07-01T04:54:45;6.27;;;2.10;;
14316;SDS011;7242;50.858;6.586;2022-07-01T04:57:45;3.87;;;1.90;;
14316;SDS011;7242;50.858;6.586;2022-07-01T05:00:46;4.50;;;1.83;;
14316;SDS011;7242;50.858;6.586;2022-07-01T05:03:48;5.33;;;1.90;;
14316;SDS011;7242;50.858;6.586;2022-07-01T05:06:49;4.80;;;1.70;;
14316;SDS011;7242;50.858;6.586;2022-07-01T05:09:50;4.53;;;1.77;;
14316;SDS011;7242;50.858;6.586;2022-07-01T05:12:51;4.00;;;1.60;;
14316;SDS011;7242;50.858;6.586;2022-07-01T05:15:51;3.13;;;1.57;;
14316;SDS011;7242;50.858;6.586;2022-07-01T05:18:52;3.73;;;1.73;;
14316;SDS011;7242;50.858;6.586;2022-07-01T05:22:11;3.47;;;1.40;;
14316;SDS011;7242;50.858;6.586;2022-07-01T05:25:12;2.73;;;1.50;;
14316;SDS011;7242;50.858;6.586;2022-07-01T05:28:12;6.20;;;2.10;;
14316;SDS011;7242;50.858;6.586;2022-07-01T05:31:13;6.73;;;2.20;;
14316;SDS011;7242;50.858;6.586;2022-07-01T05:34:14;4.90;;;1.83;;
14316;SDS011;7242;50.858;6.586;2022-07-01T05:37:15;4.87;;;2.20;;
14316;SDS011;7242;50.858;6.586;2022-07-01T05:40:18;5.07;;;1.93;;
14316;SDS011;7242;50.858;6.586;2022-07-01T05:43:19;4.83;;;1.87;;
14316;SDS011;7242;50.858;6.586;2022-07-01T05:46:20;3.97;;;1.80;;
14316;SDS011;7242;50.858;6.586;2022-07-01T05:49:21;4.37;;;1.77;;
14316;SDS011;7242;50.858;6.586;2022-07-01T05:52:22;4.83;;;1.70;;
14316;SDS011;7242;50.858;6.586;2022-07-01T05:55:22;4.30;;;1.70;;
14316;SDS011;7242;50.858;6.586;2022-07-01T05:58:23;4.03;;;1.80;;
14316;SDS011;7242;50.858;6.586;2022-07-01T06:01:24;4.10;;;1.70;;
14316;SDS011;7242;50.858;6.586;2022-07-01T06:04:25;3.77;;;1.90;;
14316;SDS011;7242;50.858;6.586;2022-07-01T06:07:25;4.37;;;2.10;;
14316;SDS011;7242;50.858;6.586;2022-07-01T06:10:26;2.83;;;1.70;;
14316;SDS011;7242;50.858;6.586;2022-07-01T06:13:27;3.87;;;2.17;;
14316;SDS011;7242;50.858;6.586;2022-07-01T06:16:29;3.27;;;1.90;;
14316;SDS011;7242;50.858;6.586;2022-07-01T06:19:29;4.63;;;1.60;;
14316;SDS011;7242;50.858;6.586;2022-07-01T06:22:30;3.63;;;1.80;;
14316;SDS011;7242;50.858;6.586;2022-07-01T06:25:31;2.50;;;1.30;;
14316;SDS011;7242;50.858;6.586;2022-07-01T06:28:32;2.90;;;1.50;;
14316;SDS011;7242;50.858;6.586;2022-07-01T06:31:33;1.67;;;1.43;;
14316;SDS011;7242;50.858;6.586;2022-07-01T06:34:34;3.33;;;1.50;;
14316;SDS011;7242;50.858;6.586;2022-07-01T06:37:35;4.53;;;1.80;;
14316;SDS011;7242;50.858;6.586;2022-07-01T06:40:36;4.77;;;1.50;;
14316;SDS011;7242;50.858;6.586;2022-07-01T06:43:37;2.07;;;1.60;;
14316;SDS011;7242;50.858;6.586;2022-07-01T06:46:37;3.47;;;1.47;;
14316;SDS011;7242;50.858;6.586;2022-07-01T06:49:38;3.23;;;1.40;;
14316;SDS011;7242;50.858;6.586;2022-07-01T06:52:39;4.10;;;1.43;;
14316;SDS011;7242;50.858;6.586;2022-07-01T06:55:40;3.90;;;1.73;;
14316;SDS011;7242;50.858;6.586;2022-07-01T06:58:41;3.83;;;1.83;;
14316;SDS011;7242;50.858;6.586;2022-07-01T07:01:42;3.47;;;1.80;;
14316;SDS011;7242;50.858;6.586;2022-07-01T07:04:43;3.03;;;1.60;;
14316;SDS011;7242;50.858;6.586;2022-07-01T07:07:43;3.27;;;1.90;;
14316;SDS011;7242;50.858;6.586;2022-07-01T07:10:44;2.87;;;1.87;;
14316;SDS011;7242;50.858;6.586;2022-07-01T07:13:45;3.30;;;2.00;;
14316;SDS011;7242;50.858;6.586;2022-07-01T07:16:46;3.17;;;2.00;;
14316;SDS011;7242;50.858;6.586;2022-07-01T07:19:47;3.63;;;1.80;;
14316;SDS011;7242;50.858;6.586;2022-07-01T07:22:48;3.93;;;1.90;;
14316;SDS011;7242;50.858;6.586;2022-07-01T07:25:48;3.67;;;1.70;;
14316;SDS011;7242;50.858;6.586;2022-07-01T07:28:50;3.10;;;1.50;;
14316;SDS011;7242;50.858;6.586;2022-07-01T07:31:51;4.77;;;1.80;;
14316;SDS011;7242;50.858;6.586;2022-07-01T07:34:52;3.53;;;1.70;;
14316;SDS011;7242;50.858;6.586;2022-07-01T07:37:52;4.47;;;1.80;;
14316;SDS011;7242;50.858;6.586;2022-07-01T07:40:53;4.23;;;1.70;;
14316;SDS011;7242;50.858;6.586;2022-07-01T07:43:54;5.43;;;1.90;;
14316;SDS011;7242;50.858;6.586;2022-07-01T07:46:55;4.53;;;1.90;;
14316;SDS011;7242;50.858;6.586;2022-07-01T07:49:57;3.30;;;1.70;;
14316;SDS011;7242;50.858;6.586;2022-07-01T07:52:57;4.50;;;2.60;;
14316;SDS011;7242;50.858;6.586;2022-07-01T07:55:58;2.40;;;1.63;;
14316;SDS011;7242;50.858;6.586;2022-07-01T07:58:59;3.30;;;1.80;;
14316;SDS011;7242;50.858;6.586;2022-07-01T08:02:00;3.17;;;1.60;;
14316;SDS011;7242;50.858;6.586;2022-07-01T08:05:01;2.87;;;1.30;;
14316;SDS011;7242;50.858;6.586;2022-07-01T08:08:02;4.97;;;1.50;;
14316;SDS011;7242;50.858;6.586;2022-07-01T08:11:03;3.77;;;1.23;;
14316;SDS011;7242;50.858;6.586;2022-07-01T08:14:04;2.30;;;1.03;;
14316;SDS011;7242;50.858;6.586;2022-07-01T08:17:05;2.57;;;1.20;;
14316;SDS011;7242;50.858;6.586;2022-07-01T08:20:06;2.37;;;1.20;;
14316;SDS011;7242;50.858;6.586;2022-07-01T08:23:07;3.23;;;1.40;;
14316;SDS011;7242;50.858;6.586;2022-07-01T08:26:08;2.60;;;1.47;;
14316;SDS011;7242;50.858;6.586;2022-07-01T08:29:11;3.63;;;1.63;;
14316;SDS011;7242;50.858;6.586;2022-07-01T08:32:12;3.37;;;1.40;;
14316;SDS011;7242;50.858;6.586;2022-07-01T08:35:13;6.50;;;1.43;;
14316;SDS011;7242;50.858;6.586;2022-07-01T08:38:13;2.47;;;1.37;;
14316;SDS011;7242;50.858;6.586;2022-07-01T08:41:14;2.80;;;1.50;;
14316;SDS011;7242;50.858;6.586;2022-07-01T08:44:16;4.23;;;1.60;;
14316;SDS011;7242;50.858;6.586;2022-07-01T08:47:16;3.13;;;1.77;;
14316;SDS011;7242;50.858;6.586;2022-07-01T08:50:17;3.80;;;1.80;;
14316;SDS011;7242;50.858;6.586;2022-07-01T08:53:18;3.93;;;1.73;;
14316;SDS011;7242;50.858;6.586;2022-07-01T08:56:19;3.13;;;1.60;;
14316;SDS011;7242;50.858;6.586;2022-07-01T08:59:38;2.70;;;1.40;;
14316;SDS011;7242;50.858;6.586;2022-07-01T09:06:02;3.60;;;1.43;;
14316;SDS011;7242;50.858;6.586;2022-07-01T09:09:33;4.43;;;1.60;;
14316;SDS011;7242;50.858;6.586;2022-07-01T09:12:39;3.97;;;1.50;;
14316;SDS011;7242;50.858;6.586;2022-07-01T09:15:41;5.53;;;1.70;;
14316;SDS011;7242;50.858;6.586;2022-07-01T09:19:03;3.47;;;1.50;;
14316;SDS011;7242;50.858;6.586;2022-07-01T09:22:04;5.03;;;1.70;;
14316;SDS011;7242;50.858;6.586;2022-07-01T09:25:12;4.63;;;1.50;;
14316;SDS011;7242;50.858;6.586;2022-07-01T09:28:15;2.87;;;1.40;;
14316;SDS011;7242;50.858;6.586;2022-07-01T09:31:16;2.00;;;1.30;;
14316;SDS011;7242;50.858;6.586;2022-07-01T09:34:17;2.37;;;1.10;;
14316;SDS011;7242;50.858;6.586;2022-07-01T09:37:18;1.80;;;0.90;;
14316;SDS011;7242;50.858;6.586;2022-07-01T09:40:21;5.10;;;1.43;;
14316;SDS011;7242;50.858;6.586;2022-07-01T09:43:34;2.50;;;1.33;;
14316;SDS011;7242;50.858;6.586;2022-07-01T09:46:35;2.60;;;1.20;;
14316;SDS011;7242;50.858;6.586;2022-07-01T09:49:36;2.80;;;1.13;;
14316;SDS011;7242;50.858;6.586;2022-07-01T09:52:37;3.77;;;1.30;;
14316;SDS011;7242;50.858;6.586;2022-07-01T09:55:39;3.57;;;1.10;;
14316;SDS011;7242;50.858;6.586;2022-07-01T09:58:40;1.90;;;1.23;;
14316;SDS011;7242;50.858;6.586;2022-07-01T10:01:42;3.20;;;1.20;;
14316;SDS011;7242;50.858;6.586;2022-07-01T10:04:48;2.50;;;1.40;;
14316;SDS011;7242;50.858;6.586;2022-07-01T10:14:58;2.20;;;1.10;;
14316;SDS011;7242;50.858;6.586;2022-07-01T10:18:04;1.57;;;1.10;;
14316;SDS011;7242;50.858;6.586;2022-07-01T10:21:05;2.23;;;1.40;;
14316;SDS011;7242;50.858;6.586;2022-07-01T10:24:13;3.20;;;1.40;;
14316;SDS011;7242;50.858;6.586;2022-07-01T10:27:24;1.27;;;0.90;;
14316;SDS011;7242;50.858;6.586;2022-07-01T10:30:30;3.40;;;0.90;;
14316;SDS011;7242;50.858;6.586;2022-07-01T10:33:44;2.27;;;1.17;;
14316;SDS011;7242;50.858;6.586;2022-07-01T10:37:00;2.03;;;1.10;;
14316;SDS011;7242;50.858;6.586;2022-07-01T10:40:03;1.70;;;0.80;;
14316;SDS011;7242;50.858;6.586;2022-07-01T10:43:06;2.47;;;1.03;;
14316;SDS011;7242;50.858;6.586;2022-07-01T10:46:07;2.50;;;1.10;;
14316;SDS011;7242;50.858;6.586;2022-07-01T10:49:08;2.60;;;1.30;;
14316;SDS011;7242;50.858;6.586;2022-07-01T10:52:12;4.00;;;1.07;;
14316;SDS011;7242;50.858;6.586;2022-07-01T10:55:16;3.00;;;1.20;;
14316;SDS011;7242;50.858;6.586;2022-07-01T10:58:17;5.23;;;1.43;;
14316;SDS011;7242;50.858;6.586;2022-07-01T11:01:20;3.60;;;1.13;;
14316;SDS011;7242;50.858;6.586;2022-07-01T11:04:20;2.00;;;1.03;;
14316;SDS011;7242;50.858;6.586;2022-07-01T11:07:23;3.17;;;1.30;;
14316;SDS011;7242;50.858;6.586;2022-07-01T11:10:25;3.77;;;1.13;;
14316;SDS011;7242;50.858;6.586;2022-07-01T11:13:26;7.30;;;1.20;;
14316;SDS011;7242;50.858;6.586;2022-07-01T11:16:28;2.30;;;1.17;;
14316;SDS011;7242;50.858;6.586;2022-07-01T11:19:31;5.80;;;1.30;;
14316;SDS011;7242;50.858;6.586;2022-07-01T11:22:33;1.90;;;0.80;;
14316;SDS011;7242;50.858;6.586;2022-07-01T11:25:34;2.43;;;1.07;;
14316;SDS011;7242;50.858;6.586;2022-07-01T11:28:39;1.20;;;0.90;;
14316;SDS011;7242;50.858;6.586;2022-07-01T11:31:40;1.33;;;1.00;;
14316;SDS011;7242;50.858;6.586;2022-07-01T11:34:41;1.17;;;0.77;;
14316;SDS011;7242;50.858;6.586;2022-07-01T11:37:42;0.93;;;0.60;;
14316;SDS011;7242;50.858;6.586;2022-07-01T11:41:03;1.43;;;0.70;;
14316;SDS011;7242;50.858;6.586;2022-07-01T11:44:06;3.13;;;0.77;;
14316;SDS011;7242;50.858;6.586;2022-07-01T11:47:09;1.43;;;0.77;;
14316;SDS011;7242;50.858;6.586;2022-07-01T11:50:11;2.80;;;0.97;;
14316;SDS011;7242;50.858;6.586;2022-07-01T11:53:14;1.63;;;0.70;;
14316;SDS011;7242;50.858;6.586;2022-07-01T11:56:15;1.20;;;0.80;;
14316;SDS011;7242;50.858;6.586;2022-07-01T11:59:27;1.80;;;0.70;;
14316;SDS011;7242;50.858;6.586;2022-07-01T12:02:28;10.17;;;1.00;;
14316;SDS011;7242;50.858;6.586;2022-07-01T12:05:29;1.67;;;0.90;;
14316;SDS011;7242;50.858;6.586;2022-07-01T12:08:30;1.50;;;0.80;;
14316;SDS011;7242;50.858;6.586;2022-07-01T12:11:31;1.47;;;0.70;;
14316;SDS011;7242;50.858;6.586;2022-07-01T12:14:35;2.90;;;0.70;;
14316;SDS011;7242;50.858;6.586;2022-07-01T12:17:36;3.13;;;0.80;;
14316;SDS011;7242;50.858;6.586;2022-07-01T12:20:37;1.70;;;0.73;;
14316;SDS011;7242;50.858;6.586;2022-07-01T12:23:38;1.70;;;0.70;;
14316;SDS011;7242;50.858;6.586;2022-07-01T12:26:46;1.67;;;0.80;;
14316;SDS011;7242;50.858;6.586;2022-07-01T12:29:59;1.30;;;0.67;;
14316;SDS011;7242;50.858;6.586;2022-07-01T12:33:08;2.60;;;0.73;;
14316;SDS011;7242;50.858;6.586;2022-07-01T12:36:10;2.10;;;0.87;;
14316;SDS011;7242;50.858;6.586;2022-07-01T12:39:12;0.60;;;0.60;;
14316;SDS011;7242;50.858;6.586;2022-07-01T12:42:23;2.20;;;0.80;;
14316;SDS011;7242;50.858;6.586;2022-07-01T12:45:28;2.30;;;0.80;;
14316;SDS011;7242;50.858;6.586;2022-07-01T12:48:29;1.00;;;0.50;;
14316;SDS011;7242;50.858;6.586;2022-07-01T12:51:48;1.87;;;0.60;;
14316;SDS011;7242;50.858;6.586;2022-07-01T12:54:50;1.67;;;0.60;;
14316;SDS011;7242;50.858;6.586;2022-07-01T12:57:53;2.70;;;0.63;;
14316;SDS011;7242;50.858;6.586;2022-07-01T13:00:56;0.90;;;0.60;;
14316;SDS011;7242;50.858;6.586;2022-07-01T13:03:58;2.73;;;0.60;;
14316;SDS011;7242;50.858;6.586;2022-07-01T13:06:59;1.27;;;0.67;;
14316;SDS011;7242;50.858;6.586;2022-07-01T13:09:59;3.10;;;0.83;;
14316;SDS011;7242;50.858;6.586;2022-07-01T13:13:01;2.60;;;0.93;;
14316;SDS011;7242;50.858;6.586;2022-07-01T13:16:04;2.43;;;0.60;;
14316;SDS011;7242;50.858;6.586;2022-07-01T13:19:05;2.77;;;0.80;;
14316;SDS011;7242;50.858;6.586;2022-07-01T13:22:05;2.20;;;0.70;;
14316;SDS011;7242;50.858;6.586;2022-07-01T13:25:06;3.20;;;0.60;;
14316;SDS011;7242;50.858;6.586;2022-07-01T13:28:08;1.27;;;0.53;;
14316;SDS011;7242;50.858;6.586;2022-07-01T13:31:09;1.67;;;0.40;;
14316;SDS011;7242;50.858;6.586;2022-07-01T13:34:10;2.43;;;0.63;;
14316;SDS011;7242;50.858;6.586;2022-07-01T13:37:11;2.80;;;0.63;;
14316;SDS011;7242;50.858;6.586;2022-07-01T13:40:12;1.63;;;0.40;;
14316;SDS011;7242;50.858;6.586;2022-07-01T13:43:13;2.57;;;0.53;;
14316;SDS011;7242;50.858;6.586;2022-07-01T13:46:16;1.03;;;0.50;;
14316;SDS011;7242;50.858;6.586;2022-07-01T13:49:17;2.60;;;0.53;;
14316;SDS011;7242;50.858;6.586;2022-07-01T13:52:17;1.57;;;0.50;;
14316;SDS011;7242;50.858;6.586;2022-07-01T13:55:18;1.87;;;0.50;;
14316;SDS011;7242;50.858;6.586;2022-07-01T13:58:19;1.70;;;0.57;;
14316;SDS011;7242;50.858;6.586;2022-07-01T14:01:20;2.83;;;0.70;;
14316;SDS011;7242;50.858;6.586;2022-07-01T14:04:24;1.53;;;0.60;;
14316;SDS011;7242;50.858;6.586;2022-07-01T14:07:25;2.43;;;0.70;;
14316;SDS011;7242;50.858;6.586;2022-07-01T14:10:26;2.43;;;0.80;;
14316;SDS011;7242;50.858;6.586;2022-07-01T14:13:27;1.87;;;0.80;;
14316;SDS011;7242;50.858;6.586;2022-07-01T14:16:28;3.37;;;0.80;;
14316;SDS011;7242;50.858;6.586;2022-07-01T14:19:29;3.70;;;0.77;;
14316;SDS011;7242;50.858;6.586;2022-07-01T14:22:31;3.37;;;0.80;;
14316;SDS011;7242;50.858;6.586;2022-07-01T14:25:32;1.37;;;0.60;;
14316;SDS011;7242;50.858;6.586;2022-07-01T14:28:33;2.30;;;0.90;;
14316;SDS011;7242;50.858;6.586;2022-07-01T14:31:34;1.53;;;0.60;;
14316;SDS011;7242;50.858;6.586;2022-07-01T14:34:35;2.53;;;0.53;;
14316;SDS011;7242;50.858;6.586;2022-07-01T14:37:38;1.90;;;0.60;;
14316;SDS011;7242;50.858;6.586;2022-07-01T14:40:39;1.33;;;0.40;;
14316;SDS011;7242;50.858;6.586;2022-07-01T14:43:40;1.07;;;0.50;;
14316;SDS011;7242;50.858;6.586;2022-07-01T14:46:41;1.80;;;0.60;;
14316;SDS011;7242;50.858;6.586;2022-07-01T14:49:42;1.40;;;0.53;;
14316;SDS011;7242;50.858;6.586;2022-07-01T14:52:44;1.53;;;0.67;;
14316;SDS011;7242;50.858;6.586;2022-07-01T14:55:45;2.70;;;0.40;;
14316;SDS011;7242;50.858;6.586;2022-07-01T14:58:46;1.13;;;0.50;;
14316;SDS011;7242;50.858;6.586;2022-07-01T15:01:46;1.33;;;0.53;;
14316;SDS011;7242;50.858;6.586;2022-07-01T15:04:47;1.20;;;0.70;;
14316;SDS011;7242;50.858;6.586;2022-07-01T15:07:48;2.00;;;0.77;;
14316;SDS011;7242;50.858;6.586;2022-07-01T15:10:49;2.47;;;0.70;;
14316;SDS011;7242;50.858;6.586;2022-07-01T15:13:50;3.90;;;0.60;;
14316;SDS011;7242;50.858;6.586;2022-07-01T15:16:50;1.63;;;0.80;;
14316;SDS011;7242;50.858;6.586;2022-07-01T15:19:51;2.67;;;0.80;;
14316;SDS011;7242;50.858;6.586;2022-07-01T15:22:52;1.43;;;0.60;;
14316;SDS011;7242;50.858;6.586;2022-07-01T15:25:53;1.00;;;0.50;;
14316;SDS011;7242;50.858;6.586;2022-07-01T15:28:54;4.97;;;0.70;;
14316;SDS011;7242;50.858;6.586;2022-07-01T15:31:55;1.07;;;0.50;;
14316;SDS011;7242;50.858;6.586;2022-07-01T15:34:57;0.70;;;0.50;;
14316;SDS011;7242;50.858;6.586;2022-07-01T15:37:58;0.90;;;0.60;;
14316;SDS011;7242;50.858;6.586;2022-07-01T15:40:59;1.03;;;0.47;;
14316;SDS011;7242;50.858;6.586;2022-07-01T15:44:01;0.87;;;0.50;;
14316;SDS011;7242;50.858;6.586;2022-07-01T15:47:03;2.07;;;1.30;;
14316;SDS011;7242;50.858;6.586;2022-07-01T15:50:22;2.50;;;0.50;;
14316;SDS011;7242;50.858;6.586;2022-07-01T15:53:24;1.33;;;0.60;;
14316;SDS011;7242;50.858;6.586;2022-07-01T15:56:25;2.10;;;0.70;;
14316;SDS011;7242;50.858;6.586;2022-07-01T15:59:25;3.57;;;2.30;;
14316;SDS011;7242;50.858;6.586;2022-07-01T16:02:26;1.20;;;1.10;;
14316;SDS011;7242;50.858;6.586;2022-07-01T16:05:27;1.47;;;0.70;;
14316;SDS011;7242;50.858;6.586;2022-07-01T16:11:36;4.73;;;1.00;;
14316;SDS011;7242;50.858;6.586;2022-07-01T16:14:37;2.23;;;0.60;;
14316;SDS011;7242;50.858;6.586;2022-07-01T16:17:39;1.37;;;0.60;;
14316;SDS011;7242;50.858;6.586;2022-07-01T16:20:44;2.03;;;0.70;;
14316;SDS011;7242;50.858;6.586;2022-07-01T16:23:49;2.03;;;0.60;;
14316;SDS011;7242;50.858;6.586;2022-07-01T16:26:55;1.43;;;0.53;;
14316;SDS011;7242;50.858;6.586;2022-07-01T16:29:56;1.73;;;0.70;;
14316;SDS011;7242;50.858;6.586;2022-07-01T16:32:58;2.23;;;0.60;;
14316;SDS011;7242;50.858;6.586;2022-07-01T16:36:00;2.07;;;0.60;;
14316;SDS011;7242;50.858;6.586;2022-07-01T16:39:11;1.07;;;0.40;;
14316;SDS011;7242;50.858;6.586;2022-07-01T16:42:16;1.00;;;0.50;;
14316;SDS011;7242;50.858;6.586;2022-07-01T16:45:17;2.53;;;0.60;;
14316;SDS011;7242;50.858;6.586;2022-07-01T16:48:21;0.63;;;0.60;;
14316;SDS011;7242;50.858;6.586;2022-07-01T16:51:25;1.33;;;0.73;;
14316;SDS011;7242;50.858;6.586;2022-07-01T16:54:31;2.27;;;0.50;;
14316;SDS011;7242;50.858;6.586;2022-07-01T16:57:36;2.70;;;0.70;;
14316;SDS011;7242;50.858;6.586;2022-07-01T17:00:39;1.23;;;0.60;;
14316;SDS011;7242;50.858;6.586;2022-07-01T17:03:40;1.73;;;0.63;;
14316;SDS011;7242;50.858;6.586;2022-07-01T17:06:44;1.20;;;0.60;;
14316;SDS011;7242;50.858;6.586;2022-07-01T17:09:45;1.23;;;0.60;;
14316;SDS011;7242;50.858;6.586;2022-07-01T17:12:47;1.13;;;0.60;;
14316;SDS011;7242;50.858;6.586;2022-07-01T17:15:48;1.50;;;0.70;;
14316;SDS011;7242;50.858;6.586;2022-07-01T17:18:50;2.17;;;0.60;;
14316;SDS011;7242;50.858;6.586;2022-07-01T17:21:54;1.83;;;0.70;;
14316;SDS011;7242;50.858;6.586;2022-07-01T17:25:02;2.30;;;0.70;;
14316;SDS011;7242;50.858;6.586;2022-07-01T17:32:01;2.00;;;0.80;;
14316;SDS011;7242;50.858;6.586;2022-07-01T17:35:03;2.20;;;0.70;;
14316;SDS011;7242;50.858;6.586;2022-07-01T17:38:04;2.60;;;0.63;;
14316;SDS011;7242;50.858;6.586;2022-07-01T17:41:07;1.10;;;0.50;;
14316;SDS011;7242;50.858;6.586;2022-07-01T17:44:12;1.03;;;0.60;;
14316;SDS011;7242;50.858;6.586;2022-07-01T17:47:14;1.53;;;0.60;;
14316;SDS011;7242;50.858;6.586;2022-07-01T17:50:19;2.13;;;0.60;;
14316;SDS011;7242;50.858;6.586;2022-07-01T17:53:24;2.63;;;0.60;;
14316;SDS011;7242;50.858;6.586;2022-07-01T17:56:26;1.50;;;0.70;;
14316;SDS011;7242;50.858;6.586;2022-07-01T17:59:28;0.70;;;0.60;;
14316;SDS011;7242;50.858;6.586;2022-07-01T18:02:30;1.90;;;0.67;;
14316;SDS011;7242;50.858;6.586;2022-07-01T18:05:35;1.73;;;0.80;;
14316;SDS011;7242;50.858;6.586;2022-07-01T18:08:36;0.70;;;0.60;;
14316;SDS011;7242;50.858;6.586;2022-07-01T18:15:05;0.97;;;0.60;;
14316;SDS011;7242;50.858;6.586;2022-07-01T18:18:10;2.73;;;0.60;;
14316;SDS011;7242;50.858;6.586;2022-07-01T18:21:12;1.57;;;0.53;;
14316;SDS011;7242;50.858;6.586;2022-07-01T18:24:17;1.60;;;0.57;;
14316;SDS011;7242;50.858;6.586;2022-07-01T18:27:20;1.70;;;0.60;;
14316;SDS011;7242;50.858;6.586;2022-07-01T18:30:25;2.60;;;0.60;;
14316;SDS011;7242;50.858;6.586;2022-07-01T18:33:31;1.93;;;0.70;;
14316;SDS011;7242;50.858;6.586;2022-07-01T18:36:40;1.47;;;0.60;;
14316;SDS011;7242;50.858;6.586;2022-07-01T18:39:43;1.10;;;0.50;;
14316;SDS011;7242;50.858;6.586;2022-07-01T18:42:44;1.43;;;0.70;;
14316;SDS011;7242;50.858;6.586;2022-07-01T18:45:45;1.50;;;0.80;;
14316;SDS011;7242;50.858;6.586;2022-07-01T18:48:45;1.87;;;0.80;;
14316;SDS011;7242;50.858;6.586;2022-07-01T18:51:46;1.67;;;0.80;;
14316;SDS011;7242;50.858;6.586;2022-07-01T18:54:47;2.97;;;0.70;;
14316;SDS011;7242;50.858;6.586;2022-07-01T18:57:48;3.57;;;0.97;;